Time;durP1;ratioP1;P1;durP2;ratioP2;P2;SDS_P1;SDS_P2;PMS_P1;PMS_P2;Temp;Humidity;BMP_temperature;BMP_pressure;BME280_temperature;BME280_humidity;BME280_pressure;Samples;Min_cycle;Max_cycle;Signal;HPM_P1;HPM_P2
2022/09/03 00:02:22;;;;;;;1.10;1.00;;;;;;;;;;5083450;28;20599;-64
2022/09/03 00:04:54;;;;;;;1.67;1.20;;;;;;;;;;5076717;28;20216;-65
2022/09/03 00:07:26;;;;;;;1.85;1.30;;;;;;;;;;5076796;28;20430;-64
2022/09/03 00:09:57;;;;;;;1.52;1.17;;;;;;;;;;5076771;28;20205;-64
2022/09/03 00:12:27;;;;;;;1.45;1.13;;;;;;;;;;5076362;28;20204;-65
2022/09/03 00:14:57;;;;;;;1.30;1.20;;;;;;;;;;5075986;28;20214;-64
2022/09/03 00:17:26;;;;;;;1.52;1.15;;;;;;;;;;5076009;28;20201;-64
2022/09/03 00:19:55;;;;;;;1.30;1.20;;;;;;;;;;5076351;28;20216;-64
2022/09/03 00:22:25;;;;;;;1.40;1.23;;;;;;;;;;5076764;28;20204;-65
2022/09/03 00:24:53;;;;;;;1.10;1.00;;;;;;;;;;5075639;28;20211;-64
2022/09/03 00:27:24;;;;;;;1.63;1.02;;;;;;;;;;5095071;28;20230;-64
2022/09/03 00:29:53;;;;;;;1.52;1.10;;;;;;;;;;5098505;28;20302;-65
2022/09/03 00:32:25;;;;;;;0.95;0.95;;;;;;;;;;5096952;28;20230;-65
2022/09/03 00:34:55;;;;;;;1.20;1.10;;;;;;;;;;5096632;28;20285;-65
2022/09/03 00:37:23;;;;;;;1.40;1.30;;;;;;;;;;5098334;28;20206;-65
2022/09/03 00:39:50;;;;;;;1.33;1.20;;;;;;;;;;5096678;28;20298;-65
2022/09/03 00:42:27;;;;;;;1.40;1.08;;;;;;;;;;5098028;28;20552;-65
2022/09/03 00:45:01;;;;;;;1.10;1.00;;;;;;;;;;5090843;28;20203;-65
2022/09/03 00:47:33;;;;;;;1.20;1.10;;;;;;;;;;5101488;28;20265;-65
2022/09/03 00:50:08;;;;;;;1.20;1.08;;;;;;;;;;5098166;28;20256;-64
2022/09/03 00:52:46;;;;;;;1.13;1.05;;;;;;;;;;5097545;28;20291;-65
2022/09/03 00:55:17;;;;;;;1.30;1.20;;;;;;;;;;5094982;28;20195;-65
2022/09/03 00:57:55;;;;;;;0.93;0.93;;;;;;;;;;5089884;28;20199;-65
2022/09/03 01:00:23;;;;;;;2.08;1.30;;;;;;;;;;5097779;28;20213;-65
2022/09/03 01:02:56;;;;;;;1.20;1.10;;;;;;;;;;5096451;28;20215;-65
2022/09/03 01:05:32;;;;;;;1.20;1.08;;;;;;;;;;5096360;28;20211;-65
2022/09/03 01:08:07;;;;;;;1.17;1.10;;;;;;;;;;5096813;28;20227;-65
2022/09/03 01:10:38;;;;;;;1.30;1.20;;;;;;;;;;5097041;28;20276;-65
2022/09/03 01:13:11;;;;;;;1.17;1.08;;;;;;;;;;5096610;28;20214;-65
2022/09/03 01:15:44;;;;;;;1.00;1.00;;;;;;;;;;5097714;28;20204;-65
2022/09/03 01:18:17;;;;;;;1.20;1.00;;;;;;;;;;5096472;28;20207;-65
2022/09/03 01:21:00;;;;;;;1.20;1.10;;;;;;;;;;5095142;28;20596;-65
2022/09/03 01:23:42;;;;;;;1.38;1.27;;;;;;;;;;5076617;28;20227;-65
2022/09/03 01:26:17;;;;;;;1.13;1.10;;;;;;;;;;5085061;28;20208;-65
2022/09/03 01:28:53;;;;;;;1.20;1.10;;;;;;;;;;5096033;28;20203;-65
2022/09/03 01:31:25;;;;;;;1.15;1.02;;;;;;;;;;5095241;28;20290;-65
2022/09/03 01:33:56;;;;;;;1.40;1.30;;;;;;;;;;5095163;28;20541;-64
2022/09/03 01:36:27;;;;;;;1.40;1.30;;;;;;;;;;5095143;28;20302;-65
2022/09/03 01:38:57;;;;;;;1.25;1.15;;;;;;;;;;5095459;28;20270;-65
2022/09/03 01:44:22;;;;;;;1.20;1.10;;;;;;;;;;5094400;28;20195;-65
2022/09/03 01:46:51;;;;;;;1.30;1.20;;;;;;;;;;5095270;28;20233;-65
2022/09/03 01:49:22;;;;;;;1.50;1.40;;;;;;;;;;5086088;28;20235;-65
2022/09/03 01:51:52;;;;;;;1.40;1.30;;;;;;;;;;5067676;28;20242;-65
2022/09/03 01:54:25;;;;;;;2.03;1.23;;;;;;;;;;5074990;28;20496;-65
2022/09/03 01:57:06;;;;;;;1.25;1.15;;;;;;;;;;5075140;28;20200;-65
2022/09/03 01:59:38;;;;;;;1.20;1.15;;;;;;;;;;5074794;28;20216;-65
2022/09/03 02:02:06;;;;;;;1.63;1.20;;;;;;;;;;5083790;28;20196;-65
2022/09/03 02:04:34;;;;;;;1.75;1.10;;;;;;;;;;5077392;28;20622;-65
2022/09/03 02:07:02;;;;;;;1.38;1.27;;;;;;;;;;5077873;28;20357;-64
2022/09/03 02:09:30;;;;;;;1.27;1.17;;;;;;;;;;5078788;28;20302;-65
2022/09/03 02:12:02;;;;;;;1.30;1.20;;;;;;;;;;5078905;28;20580;-64
2022/09/03 02:14:29;;;;;;;1.25;1.10;;;;;;;;;;5078817;28;20203;-66
2022/09/03 02:17:00;;;;;;;1.25;1.15;;;;;;;;;;5078510;28;20202;-65
2022/09/03 02:19:28;;;;;;;1.13;1.02;;;;;;;;;;5079699;28;20228;-65
2022/09/03 02:21:56;;;;;;;1.20;1.10;;;;;;;;;;5078906;28;20287;-65
2022/09/03 02:24:24;;;;;;;1.20;1.10;;;;;;;;;;5078271;28;20210;-65
2022/09/03 02:26:52;;;;;;;1.10;1.10;;;;;;;;;;5078340;28;20281;-65
2022/09/03 02:29:19;;;;;;;1.08;1.00;;;;;;;;;;5078788;28;20287;-65
2022/09/03 02:31:47;;;;;;;0.90;0.90;;;;;;;;;;5070565;28;20600;-65
2022/09/03 02:34:15;;;;;;;1.27;1.20;;;;;;;;;;5078471;28;20291;-65
2022/09/03 02:36:45;;;;;;;1.20;1.10;;;;;;;;;;5078314;28;20219;-65
2022/09/03 02:39:12;;;;;;;1.27;1.17;;;;;;;;;;5078423;28;20232;-65
2022/09/03 02:41:40;;;;;;;1.25;1.20;;;;;;;;;;5078555;28;20236;-65
2022/09/03 02:44:14;;;;;;;1.30;1.20;;;;;;;;;;5078624;28;20242;-65
2022/09/03 02:46:44;;;;;;;1.20;1.10;;;;;;;;;;5079801;28;20687;-65
2022/09/03 02:49:12;;;;;;;1.13;1.13;;;;;;;;;;5077910;28;20211;-65
2022/09/03 02:51:41;;;;;;;1.42;1.20;;;;;;;;;;5078528;28;20240;-65
2022/09/03 02:54:09;;;;;;;1.08;1.00;;;;;;;;;;5077974;28;20243;-65
2022/09/03 02:56:37;;;;;;;1.15;1.13;;;;;;;;;;5078183;28;20528;-65
2022/09/03 02:59:05;;;;;;;1.58;1.10;;;;;;;;;;5078022;28;20204;-65
2022/09/03 03:01:32;;;;;;;1.27;1.17;;;;;;;;;;5078023;28;20215;-65
2022/09/03 03:04:00;;;;;;;1.05;1.00;;;;;;;;;;5077783;28;20262;-65
2022/09/03 03:06:27;;;;;;;1.02;1.02;;;;;;;;;;5077787;28;20239;-65
2022/09/03 03:08:56;;;;;;;1.30;1.20;;;;;;;;;;5077594;28;20318;-65
2022/09/03 03:11:25;;;;;;;1.33;1.23;;;;;;;;;;5077672;28;20239;-64
2022/09/03 03:13:52;;;;;;;1.30;1.20;;;;;;;;;;5078725;28;20192;-65
2022/09/03 03:16:20;;;;;;;1.23;1.13;;;;;;;;;;5076500;28;20238;-65
2022/09/03 03:18:47;;;;;;;1.25;1.20;;;;;;;;;;5077357;28;20200;-65
2022/09/03 03:21:15;;;;;;;1.42;1.33;;;;;;;;;;5077355;28;20579;-65
2022/09/03 03:23:43;;;;;;;1.27;1.17;;;;;;;;;;5077791;28;20592;-65
2022/09/03 03:26:12;;;;;;;1.58;1.10;;;;;;;;;;5077661;28;20500;-65
2022/09/03 03:28:41;;;;;;;1.30;1.20;;;;;;;;;;5077725;28;20329;-65
2022/09/03 03:31:10;;;;;;;1.20;1.10;;;;;;;;;;5076963;28;20270;-65
2022/09/03 03:33:37;;;;;;;1.08;0.98;;;;;;;;;;5077112;28;20203;-65
2022/09/03 03:36:05;;;;;;;1.58;1.10;;;;;;;;;;5077448;28;20499;-65
2022/09/03 03:38:33;;;;;;;1.17;1.08;;;;;;;;;;5077245;28;20265;-65
2022/09/03 03:41:01;;;;;;;1.33;1.23;;;;;;;;;;5078752;28;20545;-65
2022/09/03 03:43:29;;;;;;;0.98;0.98;;;;;;;;;;5077047;28;20214;-64
2022/09/03 03:45:57;;;;;;;1.00;1.00;;;;;;;;;;5076353;28;20247;-65
2022/09/03 03:48:25;;;;;;;1.05;1.05;;;;;;;;;;5077227;28;20239;-64
2022/09/03 03:50:52;;;;;;;1.00;1.00;;;;;;;;;;5076992;28;20234;-65
2022/09/03 03:53:20;;;;;;;1.10;1.00;;;;;;;;;;5076841;28;20215;-65
2022/09/03 03:55:55;;;;;;;0.95;0.95;;;;;;;;;;5070257;28;20215;-65
2022/09/03 03:58:22;;;;;;;1.20;1.10;;;;;;;;;;5076838;28;20228;-65
2022/09/03 04:00:51;;;;;;;1.50;1.20;;;;;;;;;;5077067;28;20239;-65
2022/09/03 04:03:19;;;;;;;1.48;1.38;;;;;;;;;;5077255;28;20648;-64
2022/09/03 04:05:55;;;;;;;1.30;1.08;;;;;;;;;;5077221;28;20626;-65
2022/09/03 04:08:22;;;;;;;1.00;0.93;;;;;;;;;;5081975;28;20219;-65
2022/09/03 04:10:50;;;;;;;0.93;0.93;;;;;;;;;;5097508;28;20511;-65
2022/09/03 04:13:17;;;;;;;1.00;0.95;;;;;;;;;;5097120;28;20207;-65
2022/09/03 04:15:45;;;;;;;1.10;1.10;;;;;;;;;;5097034;28;20200;-64
2022/09/03 04:18:14;;;;;;;1.20;1.10;;;;;;;;;;5096575;28;20455;-65
2022/09/03 04:20:41;;;;;;;1.05;1.05;;;;;;;;;;5096735;28;20203;-65
2022/09/03 04:23:08;;;;;;;1.13;1.02;;;;;;;;;;5096772;28;20524;-65
2022/09/03 04:25:36;;;;;;;1.10;1.00;;;;;;;;;;5096652;28;20604;-65
2022/09/03 04:28:03;;;;;;;2.03;1.23;;;;;;;;;;5095780;28;20220;-65
2022/09/03 04:30:31;;;;;;;1.27;1.17;;;;;;;;;;5095943;28;20207;-65
2022/09/03 04:32:58;;;;;;;1.13;1.10;;;;;;;;;;5096863;28;20208;-64
2022/09/03 04:35:30;;;;;;;1.83;1.10;;;;;;;;;;5094680;28;20252;-64
2022/09/03 04:37:58;;;;;;;0.98;0.98;;;;;;;;;;5075217;28;20200;-65
2022/09/03 04:40:26;;;;;;;1.20;1.10;;;;;;;;;;5075748;28;20223;-65
2022/09/03 04:42:57;;;;;;;1.05;1.05;;;;;;;;;;5076292;28;20580;-64
2022/09/03 04:45:25;;;;;;;1.20;1.13;;;;;;;;;;5076380;28;20204;-65
2022/09/03 04:47:59;;;;;;;1.20;1.17;;;;;;;;;;5075374;28;20584;-65
2022/09/03 04:50:28;;;;;;;1.27;1.25;;;;;;;;;;5075296;28;20212;-64
2022/09/03 04:52:57;;;;;;;1.30;1.20;;;;;;;;;;5076263;28;20211;-65
2022/09/03 04:55:24;;;;;;;1.52;1.15;;;;;;;;;;5076067;28;20204;-65
2022/09/03 04:57:52;;;;;;;1.05;1.02;;;;;;;;;;5076103;28;20420;-64
2022/09/03 05:00:19;;;;;;;1.15;1.08;;;;;;;;;;5076048;28;20305;-64
2022/09/03 05:02:48;;;;;;;0.93;0.90;;;;;;;;;;5076998;28;20201;-64
2022/09/03 05:05:15;;;;;;;0.80;0.80;;;;;;;;;;5096470;28;20254;-65
2022/09/03 05:07:44;;;;;;;1.00;1.00;;;;;;;;;;5095734;28;20203;-64
2022/09/03 05:10:15;;;;;;;1.30;1.20;;;;;;;;;;5096153;28;20511;-65
2022/09/03 05:12:42;;;;;;;1.20;1.10;;;;;;;;;;5096028;28;20674;-65
2022/09/03 05:15:10;;;;;;;1.20;1.10;;;;;;;;;;5096030;28;20212;-65
2022/09/03 05:17:38;;;;;;;2.30;1.10;;;;;;;;;;5095832;28;20587;-65
2022/09/03 05:20:06;;;;;;;0.90;0.90;;;;;;;;;;5096084;28;20203;-65
2022/09/03 05:22:34;;;;;;;1.30;1.20;;;;;;;;;;5094784;28;20218;-65
2022/09/03 05:25:03;;;;;;;1.30;1.20;;;;;;;;;;5093763;28;20200;-65
2022/09/03 05:27:31;;;;;;;1.20;1.10;;;;;;;;;;5095459;28;20543;-64
2022/09/03 05:29:59;;;;;;;1.30;1.20;;;;;;;;;;5096039;28;20243;-65
2022/09/03 05:32:28;;;;;;;1.20;1.05;;;;;;;;;;5095495;28;20269;-65
2022/09/03 05:34:55;;;;;;;1.10;1.00;;;;;;;;;;5095459;28;20204;-65
2022/09/03 05:37:23;;;;;;;1.40;1.30;;;;;;;;;;5095455;28;20649;-65
2022/09/03 05:39:50;;;;;;;1.25;1.00;;;;;;;;;;5095375;28;20265;-64
2022/09/03 05:42:19;;;;;;;1.45;0.90;;;;;;;;;;5096010;28;20281;-65
2022/09/03 05:44:48;;;;;;;1.35;1.25;;;;;;;;;;5096068;28;20207;-65
2022/09/03 05:47:15;;;;;;;1.20;1.13;;;;;;;;;;5095209;28;20308;-65
2022/09/03 05:49:43;;;;;;;1.48;1.10;;;;;;;;;;5095236;28;20288;-65
2022/09/03 05:52:10;;;;;;;1.70;1.10;;;;;;;;;;5093509;28;20601;-65
2022/09/03 05:54:38;;;;;;;2.33;1.30;;;;;;;;;;5095149;28;20273;-65
2022/09/03 05:57:05;;;;;;;1.00;1.00;;;;;;;;;;5094536;28;20204;-65
2022/09/03 05:59:34;;;;;;;1.17;1.10;;;;;;;;;;5095089;28;20298;-65
2022/09/03 06:02:01;;;;;;;1.33;1.23;;;;;;;;;;5095141;28;20501;-65
2022/09/03 06:04:29;;;;;;;1.30;1.10;;;;;;;;;;5095093;28;20342;-65
2022/09/03 06:06:56;;;;;;;1.20;1.10;;;;;;;;;;5094662;28;20476;-64
2022/09/03 06:09:24;;;;;;;1.23;1.13;;;;;;;;;;5094843;28;20260;-64
2022/09/03 06:11:52;;;;;;;1.30;1.20;;;;;;;;;;5095782;28;20286;-65
2022/09/03 06:14:20;;;;;;;1.30;1.20;;;;;;;;;;5096877;28;20203;-64
2022/09/03 06:16:51;;;;;;;1.35;1.15;;;;;;;;;;5095898;28;20195;-66
2022/09/03 06:19:19;;;;;;;1.45;1.35;;;;;;;;;;5093092;28;20265;-65
2022/09/03 06:21:47;;;;;;;1.23;1.13;;;;;;;;;;5074979;28;20200;-65
2022/09/03 06:24:15;;;;;;;1.02;1.00;;;;;;;;;;5074413;28;20286;-65
2022/09/03 06:26:42;;;;;;;1.20;1.10;;;;;;;;;;5075588;28;20295;-65
2022/09/03 06:29:10;;;;;;;1.30;1.20;;;;;;;;;;5074348;28;20230;-65
2022/09/03 06:31:38;;;;;;;1.33;1.20;;;;;;;;;;5073949;28;20243;-65
2022/09/03 06:34:06;;;;;;;1.00;1.00;;;;;;;;;;5074883;28;20196;-64
2022/09/03 06:36:34;;;;;;;1.10;1.00;;;;;;;;;;5074156;28;20205;-65
2022/09/03 06:39:01;;;;;;;1.35;1.15;;;;;;;;;;5074444;28;20200;-65
2022/09/03 06:41:32;;;;;;;0.93;0.93;;;;;;;;;;5073960;28;20215;-65
2022/09/03 06:44:01;;;;;;;1.20;1.10;;;;;;;;;;5073231;28;20338;-65
2022/09/03 06:46:29;;;;;;;1.40;1.30;;;;;;;;;;5073231;28;20285;-65
2022/09/03 06:48:58;;;;;;;1.63;1.30;;;;;;;;;;5091969;28;20223;-65
2022/09/03 06:51:27;;;;;;;1.27;1.17;;;;;;;;;;5093553;28;20203;-65
2022/09/03 06:53:56;;;;;;;1.33;1.20;;;;;;;;;;5097740;28;20199;-65
2022/09/03 06:56:25;;;;;;;1.30;1.20;;;;;;;;;;5097332;28;20256;-66
2022/09/03 06:58:53;;;;;;;1.23;1.13;;;;;;;;;;5097365;28;20230;-65
2022/09/03 07:01:21;;;;;;;1.20;1.10;;;;;;;;;;5097020;28;20215;-65
2022/09/03 07:03:49;;;;;;;1.13;1.13;;;;;;;;;;5097122;28;20196;-64
2022/09/03 07:06:18;;;;;;;1.80;1.30;;;;;;;;;;5097035;28;20629;-65
2022/09/03 07:08:47;;;;;;;1.02;1.02;;;;;;;;;;5097444;28;20509;-65
2022/09/03 07:11:16;;;;;;;1.25;1.10;;;;;;;;;;5096714;28;20272;-65
2022/09/03 07:13:45;;;;;;;1.35;1.20;;;;;;;;;;5097711;28;20230;-65
2022/09/03 07:16:13;;;;;;;1.40;1.30;;;;;;;;;;5096146;28;20203;-65
2022/09/03 07:18:42;;;;;;;1.20;1.10;;;;;;;;;;5095287;28;20203;-65
2022/09/03 07:21:11;;;;;;;1.15;1.05;;;;;;;;;;5096229;28;20203;-65
2022/09/03 07:23:39;;;;;;;1.30;1.20;;;;;;;;;;5097403;28;20196;-65
2022/09/03 07:26:09;;;;;;;1.25;1.15;;;;;;;;;;5096864;28;20306;-65
2022/09/03 07:28:37;;;;;;;1.92;1.20;;;;;;;;;;5095891;28;20227;-65
2022/09/03 07:31:05;;;;;;;1.10;1.00;;;;;;;;;;5096656;28;20195;-65
2022/09/03 07:33:33;;;;;;;1.45;1.30;;;;;;;;;;5096506;28;20199;-65
2022/09/03 07:36:05;;;;;;;1.13;1.02;;;;;;;;;;5095994;28;20203;-65
2022/09/03 07:38:32;;;;;;;1.08;0.98;;;;;;;;;;5095885;28;20591;-65
2022/09/03 07:41:00;;;;;;;1.50;1.30;;;;;;;;;;5096461;28;20219;-65
2022/09/03 07:43:30;;;;;;;1.38;1.27;;;;;;;;;;5078552;28;20295;-65
2022/09/03 07:45:58;;;;;;;1.23;1.13;;;;;;;;;;5075520;28;20236;-66
2022/09/03 07:48:25;;;;;;;1.20;1.10;;;;;;;;;;5075045;28;20219;-65
2022/09/03 07:50:53;;;;;;;1.30;1.20;;;;;;;;;;5076006;28;20215;-65
2022/09/03 07:53:21;;;;;;;1.15;1.05;;;;;;;;;;5075100;28;20261;-65
2022/09/03 07:55:49;;;;;;;1.15;1.05;;;;;;;;;;5076145;28;20270;-65
2022/09/03 07:58:16;;;;;;;1.10;1.00;;;;;;;;;;5077258;28;20234;-65
2022/09/03 08:00:46;;;;;;;1.00;1.00;;;;;;;;;;5076128;28;20299;-65
2022/09/03 08:03:13;;;;;;;1.10;1.00;;;;;;;;;;5076571;28;20204;-65
2022/09/03 08:05:40;;;;;;;1.17;0.95;;;;;;;;;;5076966;28;20294;-65
2022/09/03 08:08:08;;;;;;;0.98;0.98;;;;;;;;;;5075184;28;20208;-65
2022/09/03 08:10:37;;;;;;;1.10;1.00;;;;;;;;;;5075926;28;20216;-65
2022/09/03 08:13:05;;;;;;;1.20;1.10;;;;;;;;;;5080827;28;20257;-65
2022/09/03 08:15:33;;;;;;;1.20;1.10;;;;;;;;;;5094985;28;20623;-65
2022/09/03 08:18:02;;;;;;;1.10;1.00;;;;;;;;;;5095112;28;20506;-65
2022/09/03 08:20:29;;;;;;;1.27;0.82;;;;;;;;;;5094709;28;20279;-65
2022/09/03 08:23:01;;;;;;;1.13;1.00;;;;;;;;;;5093913;28;20596;-66
2022/09/03 08:25:29;;;;;;;1.20;1.00;;;;;;;;;;5094334;28;20212;-65
2022/09/03 08:27:59;;;;;;;1.05;1.05;;;;;;;;;;5093954;28;20226;-65
2022/09/03 08:30:26;;;;;;;1.40;1.10;;;;;;;;;;5095058;28;20227;-65
2022/09/03 08:32:54;;;;;;;1.02;1.00;;;;;;;;;;5093634;28;20796;-65
2022/09/03 08:35:23;;;;;;;1.02;0.98;;;;;;;;;;5093588;28;20203;-66
2022/09/03 08:37:52;;;;;;;1.00;0.90;;;;;;;;;;5083180;28;20216;-65
2022/09/03 08:40:23;;;;;;;1.55;1.20;;;;;;;;;;5073485;28;20200;-65
2022/09/03 08:43:00;;;;;;;0.90;0.90;;;;;;;;;;5065420;28;20215;-65
2022/09/03 08:45:29;;;;;;;1.70;1.10;;;;;;;;;;5074675;28;20208;-65
2022/09/03 08:48:00;;;;;;;1.13;1.02;;;;;;;;;;5073846;28;20331;-65
2022/09/03 08:50:30;;;;;;;1.95;1.10;;;;;;;;;;5073670;28;20239;-65
2022/09/03 08:52:59;;;;;;;1.35;1.10;;;;;;;;;;5073396;28;20215;-66
2022/09/03 08:55:27;;;;;;;1.17;1.10;;;;;;;;;;5074677;28;20216;-65
2022/09/03 08:57:58;;;;;;;1.10;1.10;;;;;;;;;;5074193;28;20212;-68
2022/09/03 09:00:25;;;;;;;3.80;1.40;;;;;;;;;;5072861;28;20207;-65
2022/09/03 09:02:56;;;;;;;1.45;1.20;;;;;;;;;;5074012;28;20204;-65
2022/09/03 09:05:26;;;;;;;1.08;1.00;;;;;;;;;;5084079;28;20237;-66
2022/09/03 09:08:01;;;;;;;1.40;1.10;;;;;;;;;;5093859;28;20672;-65
2022/09/03 09:10:32;;;;;;;1.10;1.00;;;;;;;;;;5093895;28;20313;-65
2022/09/03 09:13:07;;;;;;;1.27;1.00;;;;;;;;;;5093950;28;20261;-66
2022/09/03 09:15:39;;;;;;;1.65;1.08;;;;;;;;;;5093707;28;20195;-65
2022/09/03 09:18:14;;;;;;;1.20;1.10;;;;;;;;;;5094062;28;20215;-66
2022/09/03 09:20:44;;;;;;;1.13;1.02;;;;;;;;;;5095339;28;20206;-65
2022/09/03 09:23:14;;;;;;;2.80;0.90;;;;;;;;;;5095308;28;20670;-65
2022/09/03 09:25:45;;;;;;;1.27;0.98;;;;;;;;;;5095242;28;20476;-65
2022/09/03 09:28:17;;;;;;;1.05;1.05;;;;;;;;;;5093855;28;20203;-65
2022/09/03 09:30:46;;;;;;;1.10;1.00;;;;;;;;;;5092088;28;20231;-66
2022/09/03 09:33:13;;;;;;;1.23;1.00;;;;;;;;;;5091592;28;20206;-65
2022/09/03 09:35:41;;;;;;;2.55;1.08;;;;;;;;;;5094027;28;20214;-65
2022/09/03 09:38:09;;;;;;;1.17;1.02;;;;;;;;;;5090999;28;20202;-65
2022/09/03 09:40:40;;;;;;;2.35;1.10;;;;;;;;;;5071944;28;20215;-65
2022/09/03 09:43:09;;;;;;;1.75;1.00;;;;;;;;;;5072203;28;20492;-65
2022/09/03 09:45:39;;;;;;;2.30;1.10;;;;;;;;;;5072751;28;20446;-66
2022/09/03 09:48:10;;;;;;;2.10;1.00;;;;;;;;;;5072361;28;20460;-65
2022/09/03 09:50:37;;;;;;;1.20;0.88;;;;;;;;;;5072500;28;20224;-66
2022/09/03 09:53:13;;;;;;;1.75;1.00;;;;;;;;;;5072287;28;20247;-65
2022/09/03 09:55:51;;;;;;;2.20;0.98;;;;;;;;;;5071144;28;20291;-65
2022/09/03 09:58:19;;;;;;;1.17;1.08;;;;;;;;;;5072697;28;20433;-65
2022/09/03 10:00:55;;;;;;;1.23;1.08;;;;;;;;;;5092431;28;20214;-65
2022/09/03 10:03:22;;;;;;;2.38;0.90;;;;;;;;;;5091601;28;20203;-65
2022/09/03 10:05:59;;;;;;;1.08;0.98;;;;;;;;;;5093632;28;20289;-65
2022/09/03 10:08:27;;;;;;;1.40;1.30;;;;;;;;;;5094314;28;20305;-65
2022/09/03 10:10:55;;;;;;;2.05;1.10;;;;;;;;;;5092350;28;20219;-65
2022/09/03 10:13:25;;;;;;;1.08;0.98;;;;;;;;;;5092867;28;20212;-65
2022/09/03 10:15:56;;;;;;;1.42;1.08;;;;;;;;;;5093264;28;20203;-65
2022/09/03 10:18:27;;;;;;;1.92;1.05;;;;;;;;;;5092202;28;20204;-65
2022/09/03 10:21:02;;;;;;;1.40;0.98;;;;;;;;;;5091265;28;20226;-65
2022/09/03 10:23:31;;;;;;;1.23;1.13;;;;;;;;;;5089950;28;20214;-65
2022/09/03 10:26:06;;;;;;;1.52;1.10;;;;;;;;;;5082704;28;20215;-66
2022/09/03 10:28:38;;;;;;;1.00;0.90;;;;;;;;;;5074886;28;20199;-65
2022/09/03 10:31:24;;;;;;;1.20;1.02;;;;;;;;;;5075587;28;20224;-65
2022/09/03 10:33:54;;;;;;;0.98;0.88;;;;;;;;;;5083787;28;20226;-65
2022/09/03 10:36:24;;;;;;;1.15;1.08;;;;;;;;;;5094088;28;20218;-65
2022/09/03 10:38:54;;;;;;;1.10;1.00;;;;;;;;;;5094498;28;20204;-65
2022/09/03 10:41:29;;;;;;;1.00;0.90;;;;;;;;;;5093554;28;20545;-65
2022/09/03 10:44:02;;;;;;;1.77;1.10;;;;;;;;;;5095382;28;20203;-65
2022/09/03 10:46:35;;;;;;;1.33;1.00;;;;;;;;;;5093719;28;20239;-65
2022/09/03 10:49:17;;;;;;;1.23;1.13;;;;;;;;;;5093272;28;20775;-65
2022/09/03 10:51:49;;;;;;;1.45;1.05;;;;;;;;;;5085290;28;20805;-65
2022/09/03 10:54:24;;;;;;;1.58;1.10;;;;;;;;;;5090223;28;20211;-65
2022/09/03 10:56:57;;;;;;;1.10;1.00;;;;;;;;;;5095518;28;20219;-65
2022/09/03 10:59:29;;;;;;;0.90;0.90;;;;;;;;;;5095752;28;20584;-65
2022/09/03 11:02:02;;;;;;;1.05;0.90;;;;;;;;;;5096497;28;20212;-66
2022/09/03 11:04:34;;;;;;;1.23;1.10;;;;;;;;;;5096699;28;20200;-65
2022/09/03 11:07:03;;;;;;;1.95;0.98;;;;;;;;;;5097084;28;20583;-65
2022/09/03 11:09:34;;;;;;;1.77;1.00;;;;;;;;;;5097135;28;20200;-65
2022/09/03 11:12:06;;;;;;;1.45;1.00;;;;;;;;;;5096622;28;20211;-65
2022/09/03 11:14:36;;;;;;;1.08;1.00;;;;;;;;;;5097000;28;20280;-66
2022/09/03 11:17:07;;;;;;;1.35;1.10;;;;;;;;;;5097490;28;20587;-65
2022/09/03 11:19:36;;;;;;;1.33;1.10;;;;;;;;;;5095154;28;20203;-66
2022/09/03 11:22:05;;;;;;;1.10;1.00;;;;;;;;;;5076000;28;20295;-65
2022/09/03 11:24:32;;;;;;;0.90;0.90;;;;;;;;;;5076530;28;20212;-65
2022/09/03 11:27:06;;;;;;;1.15;1.05;;;;;;;;;;5075873;28;20196;-65
2022/09/03 11:29:37;;;;;;;1.17;1.08;;;;;;;;;;5075605;28;20303;-65
2022/09/03 11:32:09;;;;;;;0.90;0.90;;;;;;;;;;5075586;28;20204;-65
2022/09/03 11:34:46;;;;;;;1.23;1.13;;;;;;;;;;5075234;28;20215;-65
2022/09/03 11:37:18;;;;;;;1.38;1.05;;;;;;;;;;5075117;28;20204;-64
2022/09/03 11:39:47;;;;;;;1.20;1.10;;;;;;;;;;5075867;28;20258;-66
2022/09/03 11:42:27;;;;;;;1.67;1.05;;;;;;;;;;5076322;28;20231;-65
2022/09/03 11:45:00;;;;;;;1.77;1.10;;;;;;;;;;5076385;28;20208;-65
2022/09/03 11:47:38;;;;;;;1.08;0.82;;;;;;;;;;5077186;28;20224;-65
2022/09/03 11:50:07;;;;;;;1.15;1.00;;;;;;;;;;5093557;28;20276;-65
2022/09/03 11:52:39;;;;;;;1.77;1.00;;;;;;;;;;5074952;28;20208;-65
2022/09/03 11:55:07;;;;;;;2.75;1.08;;;;;;;;;;5075090;28;20303;-65
2022/09/03 11:57:42;;;;;;;1.17;1.00;;;;;;;;;;5075219;28;20223;-66
2022/09/03 12:00:11;;;;;;;2.08;0.95;;;;;;;;;;5075917;28;20684;-65
2022/09/03 12:02:45;;;;;;;1.73;1.10;;;;;;;;;;5075052;28;20211;-65
2022/09/03 12:05:18;;;;;;;1.50;1.10;;;;;;;;;;5072097;28;20200;-65
2022/09/03 12:07:56;;;;;;;1.17;0.98;;;;;;;;;;5073866;28;20208;-65
2022/09/03 12:10:31;;;;;;;2.58;0.90;;;;;;;;;;5075232;28;20830;-65
2022/09/03 12:13:06;;;;;;;1.27;0.95;;;;;;;;;;5075147;28;20196;-66
2022/09/03 12:15:48;;;;;;;1.75;1.00;;;;;;;;;;5077543;28;20199;-65
2022/09/03 12:18:21;;;;;;;1.25;0.95;;;;;;;;;;5091029;28;20214;-65
2022/09/03 12:20:51;;;;;;;0.90;0.90;;;;;;;;;;5094608;28;20207;-65
2022/09/03 12:23:28;;;;;;;1.10;1.00;;;;;;;;;;5094770;28;20195;-65
2022/09/03 12:25:55;;;;;;;1.75;1.10;;;;;;;;;;5095703;28;20272;-65
2022/09/03 12:28:25;;;;;;;1.10;1.00;;;;;;;;;;5095487;28;20614;-65
2022/09/03 12:30:53;;;;;;;0.98;0.90;;;;;;;;;;5094595;28;20320;-65
2022/09/03 12:33:21;;;;;;;1.05;0.93;;;;;;;;;;5094801;28;20195;-65
2022/09/03 12:35:57;;;;;;;1.40;0.98;;;;;;;;;;5094486;28;20204;-65
2022/09/03 12:38:26;;;;;;;1.70;1.10;;;;;;;;;;5095792;28;20218;-66
2022/09/03 12:40:53;;;;;;;0.95;0.95;;;;;;;;;;5094645;28;20235;-65
2022/09/03 12:43:21;;;;;;;1.98;1.00;;;;;;;;;;5094143;28;20564;-65
2022/09/03 12:45:50;;;;;;;1.05;0.95;;;;;;;;;;5073991;28;20287;-65
2022/09/03 12:48:19;;;;;;;1.10;1.00;;;;;;;;;;5074794;28;20204;-65
2022/09/03 12:50:47;;;;;;;1.00;0.95;;;;;;;;;;5073795;28;20727;-65
2022/09/03 12:53:16;;;;;;;0.95;0.90;;;;;;;;;;5074199;28;20781;-65
2022/09/03 12:55:44;;;;;;;0.90;0.90;;;;;;;;;;5074729;28;20210;-65
2022/09/03 12:58:13;;;;;;;1.10;1.00;;;;;;;;;;5073589;28;20617;-65
2022/09/03 13:00:42;;;;;;;2.03;0.95;;;;;;;;;;5075413;28;20212;-65
2022/09/03 13:03:13;;;;;;;1.38;1.10;;;;;;;;;;5073620;28;20212;-65
2022/09/03 13:05:44;;;;;;;1.20;1.10;;;;;;;;;;5077481;28;20212;-65
2022/09/03 13:08:15;;;;;;;1.08;0.93;;;;;;;;;;5080030;28;20734;-65
2022/09/03 13:10:43;;;;;;;1.85;1.10;;;;;;;;;;5074061;28;20224;-65
2022/09/03 13:13:20;;;;;;;1.10;1.00;;;;;;;;;;5079988;28;20204;-65
2022/09/03 13:15:57;;;;;;;1.25;1.00;;;;;;;;;;5085914;28;20204;-65
2022/09/03 13:18:29;;;;;;;1.10;1.00;;;;;;;;;;5084005;28;20226;-64
2022/09/03 13:21:05;;;;;;;1.40;1.27;;;;;;;;;;5074138;28;20200;-64
2022/09/03 13:23:38;;;;;;;1.30;1.20;;;;;;;;;;5074539;28;20223;-64
2022/09/03 13:26:12;;;;;;;1.00;0.90;;;;;;;;;;5074671;28;20547;-64
2022/09/03 13:28:47;;;;;;;2.17;1.30;;;;;;;;;;5075113;28;20235;-65
2022/09/03 13:31:22;;;;;;;0.80;0.80;;;;;;;;;;5074779;28;20517;-64
2022/09/03 13:33:54;;;;;;;1.20;1.10;;;;;;;;;;5074377;28;20584;-64
2022/09/03 13:36:24;;;;;;;1.00;1.00;;;;;;;;;;5073511;28;20265;-64
2022/09/03 13:38:54;;;;;;;0.90;0.90;;;;;;;;;;5074341;28;20203;-64
2022/09/03 13:41:34;;;;;;;1.30;1.15;;;;;;;;;;5075262;28;20200;-64
2022/09/03 13:44:06;;;;;;;0.90;0.90;;;;;;;;;;5074189;28;20281;-64
2022/09/03 13:46:36;;;;;;;1.00;1.00;;;;;;;;;;5073813;28;20305;-65
2022/09/03 13:51:59;;;;;;;1.05;0.93;;;;;;;;;;5074006;28;20274;-62
2022/09/03 13:54:28;;;;;;;1.02;1.00;;;;;;;;;;5073391;28;20208;-65
2022/09/03 13:56:57;;;;;;;1.30;1.20;;;;;;;;;;5073428;28;20203;-65
2022/09/03 13:59:29;;;;;;;1.70;1.17;;;;;;;;;;5073236;28;20200;-64
2022/09/03 14:02:01;;;;;;;1.27;1.17;;;;;;;;;;5076608;28;20200;-66
2022/09/03 14:04:35;;;;;;;1.63;1.05;;;;;;;;;;5077355;28;20204;-65
2022/09/03 14:07:07;;;;;;;1.02;1.00;;;;;;;;;;5078881;28;20192;-65
2022/09/03 14:09:39;;;;;;;1.40;1.10;;;;;;;;;;5096756;28;20226;-65
2022/09/03 14:12:14;;;;;;;1.02;1.00;;;;;;;;;;5097339;28;20249;-65
2022/09/03 14:14:46;;;;;;;1.75;1.20;;;;;;;;;;5097979;28;20195;-65
2022/09/03 14:17:15;;;;;;;1.30;1.20;;;;;;;;;;5097604;28;20203;-65
2022/09/03 14:19:47;;;;;;;1.10;1.00;;;;;;;;;;5097838;28;20200;-64
2022/09/03 14:22:18;;;;;;;1.05;1.05;;;;;;;;;;5096669;28;20256;-65
2022/09/03 14:24:47;;;;;;;1.10;1.00;;;;;;;;;;5096227;28;20613;-65
2022/09/03 14:27:24;;;;;;;1.60;1.27;;;;;;;;;;5096831;28;20204;-65
2022/09/03 14:29:53;;;;;;;1.58;1.10;;;;;;;;;;5096775;28;20239;-65
2022/09/03 14:32:29;;;;;;;1.25;1.10;;;;;;;;;;5096870;28;20704;-65
2022/09/03 14:35:06;;;;;;;1.10;1.00;;;;;;;;;;5091842;28;20464;-65
2022/09/03 14:37:40;;;;;;;1.10;1.10;;;;;;;;;;5083902;28;20611;-64
2022/09/03 14:40:13;;;;;;;1.77;1.20;;;;;;;;;;5074799;28;20709;-65
2022/09/03 14:42:59;;;;;;;1.20;1.10;;;;;;;;;;5074336;28;20291;-65
2022/09/03 14:45:33;;;;;;;1.80;1.40;;;;;;;;;;5073108;28;20212;-64
2022/09/03 14:48:18;;;;;;;1.50;1.35;;;;;;;;;;5074597;28;20661;-65
2022/09/03 14:50:52;;;;;;;1.30;1.20;;;;;;;;;;5065359;28;20204;-64
2022/09/03 14:53:29;;;;;;;1.13;1.10;;;;;;;;;;5074255;28;20200;-65
2022/09/03 14:56:07;;;;;;;1.13;1.08;;;;;;;;;;5066271;28;20204;-64
2022/09/03 14:58:44;;;;;;;1.30;1.20;;;;;;;;;;5074521;28;20215;-64
2022/09/03 15:01:13;;;;;;;1.00;1.00;;;;;;;;;;5073651;28;20606;-65
2022/09/03 15:03:53;;;;;;;1.38;1.10;;;;;;;;;;5075946;28;20204;-64
2022/09/03 15:06:35;;;;;;;1.73;1.08;;;;;;;;;;5074450;28;20204;-64
2022/09/03 15:09:18;;;;;;;1.30;1.20;;;;;;;;;;5074319;28;20204;-66